sensor_id;sensor_type;location;lat;lon;timestamp;P1;durP1;ratioP1;P2;durP2;ratioP2
82574;SDS011;72260;65.870;13.210;2024-01-10T00:00:21;0.20;;;0.20;;
82574;SDS011;72260;65.870;13.210;2024-01-10T00:02:46;0.20;;;0.20;;
82574;SDS011;72260;65.870;13.210;2024-01-10T00:05:12;0.22;;;0.20;;
82574;SDS011;72260;65.870;13.210;2024-01-10T00:07:38;0.30;;;0.20;;
82574;SDS011;72260;65.870;13.210;2024-01-10T00:10:04;0.00;;;0.00;;
82574;SDS011;72260;65.870;13.210;2024-01-10T00:12:29;0.10;;;0.10;;
82574;SDS011;72260;65.870;13.210;2024-01-10T00:15:00;0.00;;;0.00;;
82574;SDS011;72260;65.870;13.210;2024-01-10T00:17:26;0.43;;;0.08;;
82574;SDS011;72260;65.870;13.210;2024-01-10T00:19:51;0.25;;;0.20;;
82574;SDS011;72260;65.870;13.210;2024-01-10T00:22:17;0.20;;;0.20;;
82574;SDS011;72260;65.870;13.210;2024-01-10T00:24:42;0.00;;;0.00;;
82574;SDS011;72260;65.870;13.210;2024-01-10T00:27:08;0.20;;;0.20;;
82574;SDS011;72260;65.870;13.210;2024-01-10T00:29:33;0.20;;;0.20;;
82574;SDS011;72260;65.870;13.210;2024-01-10T00:31:59;0.30;;;0.30;;
82574;SDS011;72260;65.870;13.210;2024-01-10T00:34:24;0.00;;;0.00;;
82574;SDS011;72260;65.870;13.210;2024-01-10T00:36:50;0.10;;;0.00;;
82574;SDS011;72260;65.870;13.210;2024-01-10T00:39:16;0.10;;;0.10;;
82574;SDS011;72260;65.870;13.210;2024-01-10T00:41:44;0.10;;;0.00;;
82574;SDS011;72260;65.870;13.210;2024-01-10T00:44:10;0.10;;;0.03;;
82574;SDS011;72260;65.870;13.210;2024-01-10T00:46:35;0.10;;;0.10;;
82574;SDS011;72260;65.870;13.210;2024-01-10T00:49:02;0.00;;;0.00;;
82574;SDS011;72260;65.870;13.210;2024-01-10T00:51:27;0.10;;;0.00;;
82574;SDS011;72260;65.870;13.210;2024-01-10T00:53:53;0.20;;;0.15;;
82574;SDS011;72260;65.870;13.210;2024-01-10T00:56:18;0.10;;;0.10;;
82574;SDS011;72260;65.870;13.210;2024-01-10T00:58:44;2.05;;;0.80;;
82574;SDS011;72260;65.870;13.210;2024-01-10T01:01:09;6.68;;;3.10;;
82574;SDS011;72260;65.870;13.210;2024-01-10T01:03:35;2.38;;;1.35;;
82574;SDS011;72260;65.870;13.210;2024-01-10T01:06:01;0.52;;;0.38;;
82574;SDS011;72260;65.870;13.210;2024-01-10T01:08:26;0.00;;;0.00;;
82574;SDS011;72260;65.870;13.210;2024-01-10T01:10:52;0.30;;;0.10;;
82574;SDS011;72260;65.870;13.210;2024-01-10T01:13:17;0.00;;;0.00;;
82574;SDS011;72260;65.870;13.210;2024-01-10T01:15:43;0.00;;;0.00;;
82574;SDS011;72260;65.870;13.210;2024-01-10T01:18:08;0.10;;;0.10;;
82574;SDS011;72260;65.870;13.210;2024-01-10T01:20:35;0.00;;;0.00;;
82574;SDS011;72260;65.870;13.210;2024-01-10T01:23:00;0.00;;;0.00;;
82574;SDS011;72260;65.870;13.210;2024-01-10T01:25:26;0.10;;;0.10;;
82574;SDS011;72260;65.870;13.210;2024-01-10T01:27:51;0.00;;;0.00;;
82574;SDS011;72260;65.870;13.210;2024-01-10T01:30:16;0.35;;;0.10;;
82574;SDS011;72260;65.870;13.210;2024-01-10T01:32:42;0.10;;;0.10;;
82574;SDS011;72260;65.870;13.210;2024-01-10T01:35:08;0.00;;;0.00;;
82574;SDS011;72260;65.870;13.210;2024-01-10T01:37:33;0.00;;;0.00;;
82574;SDS011;72260;65.870;13.210;2024-01-10T01:39:58;0.03;;;0.00;;
82574;SDS011;72260;65.870;13.210;2024-01-10T01:42:24;0.03;;;0.03;;
82574;SDS011;72260;65.870;13.210;2024-01-10T01:44:49;0.10;;;0.10;;
82574;SDS011;72260;65.870;13.210;2024-01-10T01:47:15;0.00;;;0.00;;
82574;SDS011;72260;65.870;13.210;2024-01-10T01:49:41;0.03;;;0.00;;
82574;SDS011;72260;65.870;13.210;2024-01-10T01:52:10;0.08;;;0.00;;
82574;SDS011;72260;65.870;13.210;2024-01-10T01:54:36;0.20;;;0.20;;
82574;SDS011;72260;65.870;13.210;2024-01-10T01:57:02;0.00;;;0.00;;
82574;SDS011;72260;65.870;13.210;2024-01-10T01:59:28;0.00;;;0.00;;
82574;SDS011;72260;65.870;13.210;2024-01-10T02:01:54;0.10;;;0.10;;
82574;SDS011;72260;65.870;13.210;2024-01-10T02:04:20;0.13;;;0.13;;
82574;SDS011;72260;65.870;13.210;2024-01-10T02:06:45;0.10;;;0.10;;
82574;SDS011;72260;65.870;13.210;2024-01-10T02:09:11;0.57;;;0.00;;
82574;SDS011;72260;65.870;13.210;2024-01-10T02:11:37;0.05;;;0.05;;
82574;SDS011;72260;65.870;13.210;2024-01-10T02:14:02;0.00;;;0.00;;
82574;SDS011;72260;65.870;13.210;2024-01-10T02:16:28;0.08;;;0.08;;
82574;SDS011;72260;65.870;13.210;2024-01-10T02:18:54;0.38;;;0.32;;
82574;SDS011;72260;65.870;13.210;2024-01-10T02:21:20;0.13;;;0.13;;
82574;SDS011;72260;65.870;13.210;2024-01-10T02:23:47;0.70;;;0.20;;
82574;SDS011;72260;65.870;13.210;2024-01-10T02:26:13;0.30;;;0.30;;
82574;SDS011;72260;65.870;13.210;2024-01-10T02:28:39;0.22;;;0.22;;
82574;SDS011;72260;65.870;13.210;2024-01-10T02:31:07;0.32;;;0.32;;
82574;SDS011;72260;65.870;13.210;2024-01-10T02:33:35;0.88;;;0.40;;
82574;SDS011;72260;65.870;13.210;2024-01-10T02:36:01;0.70;;;0.40;;
82574;SDS011;72260;65.870;13.210;2024-01-10T02:38:26;1.35;;;0.65;;
82574;SDS011;72260;65.870;13.210;2024-01-10T02:40:52;1.20;;;0.52;;
82574;SDS011;72260;65.870;13.210;2024-01-10T02:43:18;0.93;;;0.32;;
82574;SDS011;72260;65.870;13.210;2024-01-10T02:45:44;2.67;;;0.93;;
82574;SDS011;72260;65.870;13.210;2024-01-10T02:48:09;1.70;;;1.05;;
82574;SDS011;72260;65.870;13.210;2024-01-10T02:50:35;9.18;;;1.35;;
82574;SDS011;72260;65.870;13.210;2024-01-10T02:53:00;12.02;;;1.70;;
82574;SDS011;72260;65.870;13.210;2024-01-10T02:55:26;13.77;;;1.45;;
82574;SDS011;72260;65.870;13.210;2024-01-10T02:57:51;6.45;;;1.33;;
82574;SDS011;72260;65.870;13.210;2024-01-10T03:00:17;8.90;;;1.60;;
82574;SDS011;72260;65.870;13.210;2024-01-10T03:02:42;7.50;;;1.30;;
82574;SDS011;72260;65.870;13.210;2024-01-10T03:05:08;9.70;;;1.85;;
82574;SDS011;72260;65.870;13.210;2024-01-10T03:07:33;9.10;;;1.75;;
82574;SDS011;72260;65.870;13.210;2024-01-10T03:09:59;3.47;;;1.23;;
82574;SDS011;72260;65.870;13.210;2024-01-10T03:12:24;5.65;;;1.27;;
82574;SDS011;72260;65.870;13.210;2024-01-10T03:14:50;7.30;;;1.10;;
82574;SDS011;72260;65.870;13.210;2024-01-10T03:17:15;2.67;;;0.88;;
82574;SDS011;72260;65.870;13.210;2024-01-10T03:19:41;7.63;;;1.35;;
82574;SDS011;72260;65.870;13.210;2024-01-10T03:22:09;7.65;;;1.50;;
82574;SDS011;72260;65.870;13.210;2024-01-10T03:24:38;6.00;;;1.20;;
82574;SDS011;72260;65.870;13.210;2024-01-10T03:27:04;6.13;;;1.75;;
82574;SDS011;72260;65.870;13.210;2024-01-10T03:29:30;5.82;;;1.67;;
82574;SDS011;72260;65.870;13.210;2024-01-10T03:31:55;8.35;;;2.03;;
82574;SDS011;72260;65.870;13.210;2024-01-10T03:34:21;5.60;;;1.90;;
82574;SDS011;72260;65.870;13.210;2024-01-10T03:36:46;7.82;;;1.45;;
82574;SDS011;72260;65.870;13.210;2024-01-10T03:39:12;7.97;;;1.77;;
82574;SDS011;72260;65.870;13.210;2024-01-10T03:41:37;7.38;;;1.80;;
82574;SDS011;72260;65.870;13.210;2024-01-10T03:44:03;9.50;;;1.85;;
82574;SDS011;72260;65.870;13.210;2024-01-10T03:46:29;5.32;;;1.25;;
82574;SDS011;72260;65.870;13.210;2024-01-10T03:48:54;8.27;;;1.55;;
82574;SDS011;72260;65.870;13.210;2024-01-10T03:51:20;6.93;;;2.50;;
82574;SDS011;72260;65.870;13.210;2024-01-10T03:53:46;6.75;;;2.13;;
82574;SDS011;72260;65.870;13.210;2024-01-10T03:56:14;11.15;;;1.67;;
82574;SDS011;72260;65.870;13.210;2024-01-10T03:58:40;5.55;;;1.60;;
82574;SDS011;72260;65.870;13.210;2024-01-10T04:01:06;6.63;;;1.50;;
82574;SDS011;72260;65.870;13.210;2024-01-10T04:03:32;9.02;;;1.60;;
82574;SDS011;72260;65.870;13.210;2024-01-10T04:05:58;6.32;;;1.48;;
82574;SDS011;72260;65.870;13.210;2024-01-10T04:08:23;4.97;;;1.33;;
82574;SDS011;72260;65.870;13.210;2024-01-10T04:10:49;2.15;;;0.90;;
82574;SDS011;72260;65.870;13.210;2024-01-10T04:13:14;4.15;;;1.10;;
82574;SDS011;72260;65.870;13.210;2024-01-10T04:15:40;3.10;;;0.88;;
82574;SDS011;72260;65.870;13.210;2024-01-10T04:18:05;4.22;;;1.25;;
82574;SDS011;72260;65.870;13.210;2024-01-10T04:20:31;3.97;;;0.88;;
82574;SDS011;72260;65.870;13.210;2024-01-10T04:22:56;1.83;;;1.00;;
82574;SDS011;72260;65.870;13.210;2024-01-10T04:25:22;3.78;;;1.30;;
82574;SDS011;72260;65.870;13.210;2024-01-10T04:27:47;3.40;;;1.00;;
82574;SDS011;72260;65.870;13.210;2024-01-10T04:30:15;3.60;;;1.02;;
82574;SDS011;72260;65.870;13.210;2024-01-10T04:32:41;4.60;;;0.95;;
82574;SDS011;72260;65.870;13.210;2024-01-10T04:35:06;2.22;;;0.95;;
82574;SDS011;72260;65.870;13.210;2024-01-10T04:37:32;1.38;;;0.82;;
82574;SDS011;72260;65.870;13.210;2024-01-10T04:39:57;4.70;;;0.75;;
82574;SDS011;72260;65.870;13.210;2024-01-10T04:42:23;1.73;;;0.60;;
82574;SDS011;72260;65.870;13.210;2024-01-10T04:44:48;1.02;;;0.57;;
82574;SDS011;72260;65.870;13.210;2024-01-10T04:47:15;3.50;;;0.73;;
82574;SDS011;72260;65.870;13.210;2024-01-10T04:49:40;1.05;;;0.65;;
82574;SDS011;72260;65.870;13.210;2024-01-10T04:52:06;2.97;;;0.90;;
82574;SDS011;72260;65.870;13.210;2024-01-10T04:54:31;6.35;;;1.20;;
82574;SDS011;72260;65.870;13.210;2024-01-10T04:56:57;2.30;;;1.80;;
82574;SDS011;72260;65.870;13.210;2024-01-10T04:59:23;3.70;;;1.20;;
82574;SDS011;72260;65.870;13.210;2024-01-10T05:01:48;2.08;;;1.00;;
82574;SDS011;72260;65.870;13.210;2024-01-10T05:04:14;2.65;;;1.20;;
82574;SDS011;72260;65.870;13.210;2024-01-10T05:06:39;3.10;;;1.17;;
82574;SDS011;72260;65.870;13.210;2024-01-10T05:09:05;5.28;;;1.50;;
82574;SDS011;72260;65.870;13.210;2024-01-10T05:11:31;3.80;;;1.35;;
82574;SDS011;72260;65.870;13.210;2024-01-10T05:13:57;5.18;;;1.73;;
82574;SDS011;72260;65.870;13.210;2024-01-10T05:16:22;7.90;;;2.75;;
82574;SDS011;72260;65.870;13.210;2024-01-10T05:18:48;11.90;;;1.90;;
82574;SDS011;72260;65.870;13.210;2024-01-10T05:21:13;5.95;;;1.42;;
82574;SDS011;72260;65.870;13.210;2024-01-10T05:23:39;3.42;;;1.50;;
82574;SDS011;72260;65.870;13.210;2024-01-10T05:26:05;11.13;;;2.35;;
82574;SDS011;72260;65.870;13.210;2024-01-10T05:28:31;4.95;;;1.73;;
82574;SDS011;72260;65.870;13.210;2024-01-10T05:30:57;7.07;;;2.05;;
82574;SDS011;72260;65.870;13.210;2024-01-10T05:33:24;5.65;;;1.88;;
82574;SDS011;72260;65.870;13.210;2024-01-10T05:35:49;6.70;;;2.28;;
82574;SDS011;72260;65.870;13.210;2024-01-10T05:38:15;16.00;;;2.10;;
82574;SDS011;72260;65.870;13.210;2024-01-10T05:40:41;7.82;;;2.13;;
82574;SDS011;72260;65.870;13.210;2024-01-10T05:43:06;11.20;;;2.08;;
82574;SDS011;72260;65.870;13.210;2024-01-10T05:45:32;11.98;;;2.42;;
82574;SDS011;72260;65.870;13.210;2024-01-10T05:47:58;8.68;;;1.77;;
82574;SDS011;72260;65.870;13.210;2024-01-10T05:50:24;5.72;;;1.98;;
82574;SDS011;72260;65.870;13.210;2024-01-10T05:52:49;11.48;;;2.60;;
82574;SDS011;72260;65.870;13.210;2024-01-10T05:55:15;7.35;;;1.88;;
82574;SDS011;72260;65.870;13.210;2024-01-10T05:57:40;7.43;;;1.45;;
82574;SDS011;72260;65.870;13.210;2024-01-10T06:00:06;4.78;;;1.23;;
82574;SDS011;72260;65.870;13.210;2024-01-10T06:02:41;9.30;;;1.33;;
82574;SDS011;72260;65.870;13.210;2024-01-10T06:05:07;6.70;;;2.08;;
82574;SDS011;72260;65.870;13.210;2024-01-10T06:07:34;5.50;;;1.60;;
82574;SDS011;72260;65.870;13.210;2024-01-10T06:10:00;4.78;;;1.30;;
82574;SDS011;72260;65.870;13.210;2024-01-10T06:12:26;5.55;;;1.58;;
82574;SDS011;72260;65.870;13.210;2024-01-10T06:14:52;3.63;;;1.20;;
82574;SDS011;72260;65.870;13.210;2024-01-10T06:17:17;3.53;;;1.30;;
82574;SDS011;72260;65.870;13.210;2024-01-10T06:19:44;6.88;;;1.67;;
82574;SDS011;72260;65.870;13.210;2024-01-10T06:22:09;11.00;;;2.97;;
82574;SDS011;72260;65.870;13.210;2024-01-10T06:24:36;6.38;;;1.65;;
82574;SDS011;72260;65.870;13.210;2024-01-10T06:27:03;10.93;;;1.88;;
82574;SDS011;72260;65.870;13.210;2024-01-10T06:29:29;6.53;;;1.70;;
82574;SDS011;72260;65.870;13.210;2024-01-10T06:31:55;10.60;;;1.92;;
82574;SDS011;72260;65.870;13.210;2024-01-10T06:34:22;9.00;;;1.75;;
82574;SDS011;72260;65.870;13.210;2024-01-10T06:36:47;6.68;;;1.63;;
82574;SDS011;72260;65.870;13.210;2024-01-10T06:39:13;5.40;;;1.40;;
82574;SDS011;72260;65.870;13.210;2024-01-10T06:41:39;5.07;;;1.90;;
82574;SDS011;72260;65.870;13.210;2024-01-10T06:44:04;8.63;;;1.83;;
82574;SDS011;72260;65.870;13.210;2024-01-10T06:46:31;4.68;;;1.17;;
82574;SDS011;72260;65.870;13.210;2024-01-10T06:48:59;1.75;;;1.08;;
82574;SDS011;72260;65.870;13.210;2024-01-10T06:51:24;9.32;;;1.88;;
82574;SDS011;72260;65.870;13.210;2024-01-10T06:53:51;2.63;;;1.33;;
82574;SDS011;72260;65.870;13.210;2024-01-10T06:56:17;5.25;;;1.30;;
82574;SDS011;72260;65.870;13.210;2024-01-10T06:58:44;9.60;;;1.75;;
82574;SDS011;72260;65.870;13.210;2024-01-10T07:01:13;6.90;;;1.50;;
82574;SDS011;72260;65.870;13.210;2024-01-10T07:03:39;7.28;;;1.30;;
82574;SDS011;72260;65.870;13.210;2024-01-10T07:06:05;9.20;;;1.77;;
82574;SDS011;72260;65.870;13.210;2024-01-10T07:08:32;4.35;;;1.80;;
82574;SDS011;72260;65.870;13.210;2024-01-10T07:10:57;7.63;;;1.52;;
82574;SDS011;72260;65.870;13.210;2024-01-10T07:13:24;4.60;;;1.70;;
82574;SDS011;72260;65.870;13.210;2024-01-10T07:15:49;8.02;;;1.63;;
82574;SDS011;72260;65.870;13.210;2024-01-10T07:18:19;7.32;;;1.80;;
82574;SDS011;72260;65.870;13.210;2024-01-10T07:20:44;7.60;;;1.50;;
82574;SDS011;72260;65.870;13.210;2024-01-10T07:23:10;4.03;;;1.23;;
82574;SDS011;72260;65.870;13.210;2024-01-10T07:25:36;7.72;;;1.77;;
82574;SDS011;72260;65.870;13.210;2024-01-10T07:28:02;8.07;;;2.28;;
82574;SDS011;72260;65.870;13.210;2024-01-10T07:30:28;10.70;;;1.90;;
82574;SDS011;72260;65.870;13.210;2024-01-10T07:32:58;10.90;;;2.13;;
82574;SDS011;72260;65.870;13.210;2024-01-10T07:35:23;9.20;;;1.92;;
82574;SDS011;72260;65.870;13.210;2024-01-10T07:37:49;8.23;;;1.58;;
82574;SDS011;72260;65.870;13.210;2024-01-10T07:40:14;5.07;;;1.48;;
82574;SDS011;72260;65.870;13.210;2024-01-10T07:42:40;6.35;;;1.35;;
82574;SDS011;72260;65.870;13.210;2024-01-10T07:45:09;3.53;;;1.40;;
82574;SDS011;72260;65.870;13.210;2024-01-10T07:47:35;5.75;;;1.73;;
82574;SDS011;72260;65.870;13.210;2024-01-10T07:50:04;5.28;;;1.15;;
82574;SDS011;72260;65.870;13.210;2024-01-10T07:52:30;3.13;;;1.20;;
82574;SDS011;72260;65.870;13.210;2024-01-10T07:54:57;9.27;;;1.58;;
82574;SDS011;72260;65.870;13.210;2024-01-10T07:57:23;3.83;;;1.15;;
82574;SDS011;72260;65.870;13.210;2024-01-10T07:59:48;7.82;;;1.30;;
82574;SDS011;72260;65.870;13.210;2024-01-10T08:02:14;3.60;;;1.00;;
82574;SDS011;72260;65.870;13.210;2024-01-10T08:04:39;5.90;;;1.25;;
82574;SDS011;72260;65.870;13.210;2024-01-10T08:07:05;6.38;;;1.55;;
82574;SDS011;72260;65.870;13.210;2024-01-10T08:09:31;5.00;;;1.42;;
82574;SDS011;72260;65.870;13.210;2024-01-10T08:11:56;3.08;;;1.50;;
82574;SDS011;72260;65.870;13.210;2024-01-10T08:14:22;4.30;;;1.52;;
82574;SDS011;72260;65.870;13.210;2024-01-10T08:16:48;10.02;;;1.88;;
82574;SDS011;72260;65.870;13.210;2024-01-10T08:19:13;3.50;;;1.27;;
82574;SDS011;72260;65.870;13.210;2024-01-10T08:21:39;11.73;;;1.83;;
82574;SDS011;72260;65.870;13.210;2024-01-10T08:24:05;3.80;;;0.95;;
82574;SDS011;72260;65.870;13.210;2024-01-10T08:26:31;6.22;;;1.25;;
82574;SDS011;72260;65.870;13.210;2024-01-10T08:28:56;2.35;;;0.70;;
82574;SDS011;72260;65.870;13.210;2024-01-10T08:31:22;7.20;;;1.30;;
82574;SDS011;72260;65.870;13.210;2024-01-10T08:33:48;3.10;;;1.23;;
82574;SDS011;72260;65.870;13.210;2024-01-10T08:36:14;3.03;;;0.98;;
82574;SDS011;72260;65.870;13.210;2024-01-10T08:38:40;4.43;;;1.00;;
82574;SDS011;72260;65.870;13.210;2024-01-10T08:41:07;7.60;;;1.45;;
82574;SDS011;72260;65.870;13.210;2024-01-10T08:43:34;6.43;;;1.20;;
82574;SDS011;72260;65.870;13.210;2024-01-10T08:45:59;4.65;;;1.40;;
82574;SDS011;72260;65.870;13.210;2024-01-10T08:48:25;3.83;;;1.17;;
82574;SDS011;72260;65.870;13.210;2024-01-10T08:50:51;3.03;;;0.98;;
82574;SDS011;72260;65.870;13.210;2024-01-10T08:53:16;4.35;;;0.95;;
82574;SDS011;72260;65.870;13.210;2024-01-10T08:58:17;3.10;;;1.10;;
82574;SDS011;72260;65.870;13.210;2024-01-10T09:00:42;3.97;;;1.10;;
82574;SDS011;72260;65.870;13.210;2024-01-10T09:03:08;6.20;;;1.13;;
82574;SDS011;72260;65.870;13.210;2024-01-10T09:05:34;6.15;;;1.20;;
82574;SDS011;72260;65.870;13.210;2024-01-10T09:07:59;2.13;;;0.93;;
82574;SDS011;72260;65.870;13.210;2024-01-10T09:10:25;3.15;;;1.23;;
82574;SDS011;72260;65.870;13.210;2024-01-10T09:12:53;3.08;;;1.20;;
82574;SDS011;72260;65.870;13.210;2024-01-10T09:15:20;5.32;;;1.10;;
82574;SDS011;72260;65.870;13.210;2024-01-10T09:17:46;2.63;;;1.00;;
82574;SDS011;72260;65.870;13.210;2024-01-10T09:20:12;1.48;;;1.02;;
82574;SDS011;72260;65.870;13.210;2024-01-10T09:22:38;3.75;;;1.30;;
82574;SDS011;72260;65.870;13.210;2024-01-10T09:25:04;2.67;;;0.60;;
82574;SDS011;72260;65.870;13.210;2024-01-10T09:27:34;0.20;;;0.20;;
82574;SDS011;72260;65.870;13.210;2024-01-10T09:32:33;1.17;;;0.38;;
82574;SDS011;72260;65.870;13.210;2024-01-10T09:35:00;2.28;;;0.80;;
82574;SDS011;72260;65.870;13.210;2024-01-10T09:37:25;1.17;;;0.32;;
82574;SDS011;72260;65.870;13.210;2024-01-10T09:39:51;1.77;;;0.38;;
82574;SDS011;72260;65.870;13.210;2024-01-10T09:42:17;2.17;;;0.50;;
82574;SDS011;72260;65.870;13.210;2024-01-10T09:44:50;0.75;;;0.45;;
82574;SDS011;72260;65.870;13.210;2024-01-10T09:47:16;1.85;;;0.10;;
82574;SDS011;72260;65.870;13.210;2024-01-10T09:49:45;3.03;;;0.60;;
82574;SDS011;72260;65.870;13.210;2024-01-10T09:52:12;0.30;;;0.10;;
82574;SDS011;72260;65.870;13.210;2024-01-10T09:54:45;1.30;;;0.77;;
82574;SDS011;72260;65.870;13.210;2024-01-10T09:57:13;4.20;;;0.32;;
82574;SDS011;72260;65.870;13.210;2024-01-10T09:59:38;0.40;;;0.20;;
82574;SDS011;72260;65.870;13.210;2024-01-10T10:02:04;2.95;;;0.73;;
82574;SDS011;72260;65.870;13.210;2024-01-10T10:04:29;0.55;;;0.40;;
82574;SDS011;72260;65.870;13.210;2024-01-10T10:06:59;0.85;;;0.30;;
82574;SDS011;72260;65.870;13.210;2024-01-10T10:09:26;0.45;;;0.30;;
82574;SDS011;72260;65.870;13.210;2024-01-10T10:11:56;0.80;;;0.50;;
82574;SDS011;72260;65.870;13.210;2024-01-10T10:14:23;0.45;;;0.45;;
82574;SDS011;72260;65.870;13.210;2024-01-10T10:16:51;1.55;;;0.47;;
82574;SDS011;72260;65.870;13.210;2024-01-10T10:19:26;2.45;;;0.88;;
82574;SDS011;72260;65.870;13.210;2024-01-10T10:21:52;2.47;;;0.63;;
82574;SDS011;72260;65.870;13.210;2024-01-10T10:24:25;0.47;;;0.43;;
82574;SDS011;72260;65.870;13.210;2024-01-10T10:26:50;3.55;;;0.85;;
82574;SDS011;72260;65.870;13.210;2024-01-10T10:29:19;3.10;;;0.57;;
82574;SDS011;72260;65.870;13.210;2024-01-10T10:31:47;1.63;;;0.57;;
82574;SDS011;72260;65.870;13.210;2024-01-10T10:34:14;3.63;;;1.00;;
82574;SDS011;72260;65.870;13.210;2024-01-10T10:36:47;2.20;;;0.85;;
82574;SDS011;72260;65.870;13.210;2024-01-10T10:39:16;1.67;;;0.75;;
82574;SDS011;72260;65.870;13.210;2024-01-10T10:41:42;1.10;;;0.60;;
82574;SDS011;72260;65.870;13.210;2024-01-10T10:44:08;1.10;;;0.65;;
82574;SDS011;72260;65.870;13.210;2024-01-10T10:46:35;2.13;;;0.70;;
82574;SDS011;72260;65.870;13.210;2024-01-10T10:49:06;1.85;;;0.73;;
82574;SDS011;72260;65.870;13.210;2024-01-10T10:51:37;4.63;;;0.88;;
82574;SDS011;72260;65.870;13.210;2024-01-10T10:54:06;1.02;;;0.57;;
82574;SDS011;72260;65.870;13.210;2024-01-10T10:56:33;0.60;;;0.50;;
82574;SDS011;72260;65.870;13.210;2024-01-10T10:59:02;1.25;;;0.60;;
82574;SDS011;72260;65.870;13.210;2024-01-10T11:01:30;2.78;;;0.80;;
82574;SDS011;72260;65.870;13.210;2024-01-10T11:03:57;1.88;;;0.75;;
82574;SDS011;72260;65.870;13.210;2024-01-10T11:06:23;2.33;;;0.65;;
82574;SDS011;72260;65.870;13.210;2024-01-10T11:08:50;4.22;;;0.68;;
82574;SDS011;72260;65.870;13.210;2024-01-10T11:25:25;1.90;;;0.70;;
82574;SDS011;72260;65.870;13.210;2024-01-10T11:28:02;2.72;;;0.60;;
82574;SDS011;72260;65.870;13.210;2024-01-10T11:30:34;1.85;;;0.38;;
82574;SDS011;72260;65.870;13.210;2024-01-10T11:33:17;1.75;;;0.50;;
82574;SDS011;72260;65.870;13.210;2024-01-10T11:38:44;1.08;;;0.50;;
82574;SDS011;72260;65.870;13.210;2024-01-10T11:41:34;1.17;;;0.40;;
82574;SDS011;72260;65.870;13.210;2024-01-10T11:44:25;5.93;;;1.25;;
82574;SDS011;72260;65.870;13.210;2024-01-10T11:46:54;2.63;;;0.30;;
82574;SDS011;72260;65.870;13.210;2024-01-10T11:49:21;1.75;;;0.38;;
82574;SDS011;72260;65.870;13.210;2024-01-10T11:51:49;2.85;;;0.80;;
82574;SDS011;72260;65.870;13.210;2024-01-10T11:57:12;3.60;;;0.73;;
82574;SDS011;72260;65.870;13.210;2024-01-10T11:59:44;1.58;;;0.40;;
82574;SDS011;72260;65.870;13.210;2024-01-10T12:02:11;3.13;;;0.90;;
82574;SDS011;72260;65.870;13.210;2024-01-10T12:04:37;1.75;;;0.63;;
82574;SDS011;72260;65.870;13.210;2024-01-10T12:07:03;1.48;;;0.70;;
82574;SDS011;72260;65.870;13.210;2024-01-10T12:09:31;2.17;;;0.40;;
82574;SDS011;72260;65.870;13.210;2024-01-10T12:11:57;4.05;;;0.70;;
82574;SDS011;72260;65.870;13.210;2024-01-10T12:14:23;3.00;;;0.80;;
82574;SDS011;72260;65.870;13.210;2024-01-10T12:16:50;1.58;;;0.80;;
82574;SDS011;72260;65.870;13.210;2024-01-10T12:19:16;1.67;;;0.80;;
82574;SDS011;72260;65.870;13.210;2024-01-10T12:21:42;3.00;;;0.82;;
82574;SDS011;72260;65.870;13.210;2024-01-10T12:24:07;2.33;;;0.90;;
82574;SDS011;72260;65.870;13.210;2024-01-10T12:26:33;1.73;;;0.63;;
82574;SDS011;72260;65.870;13.210;2024-01-10T12:28:59;1.23;;;0.55;;
82574;SDS011;72260;65.870;13.210;2024-01-10T12:31:28;1.33;;;0.82;;
82574;SDS011;72260;65.870;13.210;2024-01-10T12:36:20;2.35;;;0.40;;
82574;SDS011;72260;65.870;13.210;2024-01-10T12:38:46;1.95;;;0.57;;
82574;SDS011;72260;65.870;13.210;2024-01-10T12:41:11;3.85;;;0.60;;
82574;SDS011;72260;65.870;13.210;2024-01-10T12:43:40;4.30;;;0.80;;
82574;SDS011;72260;65.870;13.210;2024-01-10T12:46:10;2.00;;;0.40;;
82574;SDS011;72260;65.870;13.210;2024-01-10T12:48:39;2.03;;;0.57;;
82574;SDS011;72260;65.870;13.210;2024-01-10T12:51:11;2.05;;;0.47;;
82574;SDS011;72260;65.870;13.210;2024-01-10T12:53:38;2.30;;;0.55;;
82574;SDS011;72260;65.870;13.210;2024-01-10T12:56:06;0.95;;;0.30;;
82574;SDS011;72260;65.870;13.210;2024-01-10T12:58:32;2.55;;;0.47;;
82574;SDS011;72260;65.870;13.210;2024-01-10T13:01:04;1.98;;;0.60;;
82574;SDS011;72260;65.870;13.210;2024-01-10T13:03:30;7.25;;;1.05;;
82574;SDS011;72260;65.870;13.210;2024-01-10T13:05:56;4.10;;;1.02;;
82574;SDS011;72260;65.870;13.210;2024-01-10T13:08:22;6.45;;;1.38;;
82574;SDS011;72260;65.870;13.210;2024-01-10T13:10:47;2.17;;;0.90;;
82574;SDS011;72260;65.870;13.210;2024-01-10T13:13:14;3.00;;;0.75;;
82574;SDS011;72260;65.870;13.210;2024-01-10T13:15:45;6.32;;;1.60;;
82574;SDS011;72260;65.870;13.210;2024-01-10T13:18:10;8.82;;;1.42;;
82574;SDS011;72260;65.870;13.210;2024-01-10T13:20:36;4.40;;;1.20;;
82574;SDS011;72260;65.870;13.210;2024-01-10T13:23:03;7.95;;;1.10;;
82574;SDS011;72260;65.870;13.210;2024-01-10T13:25:29;8.65;;;2.08;;
82574;SDS011;72260;65.870;13.210;2024-01-10T13:27:57;9.63;;;1.23;;
82574;SDS011;72260;65.870;13.210;2024-01-10T13:30:22;5.05;;;1.02;;
82574;SDS011;72260;65.870;13.210;2024-01-10T13:32:48;5.07;;;0.80;;
82574;SDS011;72260;65.870;13.210;2024-01-10T13:35:15;3.40;;;0.75;;
82574;SDS011;72260;65.870;13.210;2024-01-10T13:37:47;6.10;;;0.80;;
82574;SDS011;72260;65.870;13.210;2024-01-10T13:40:12;3.22;;;0.70;;
82574;SDS011;72260;65.870;13.210;2024-01-10T13:42:41;1.95;;;0.50;;
82574;SDS011;72260;65.870;13.210;2024-01-10T13:45:09;2.78;;;0.98;;
82574;SDS011;72260;65.870;13.210;2024-01-10T13:47:38;2.42;;;1.13;;
82574;SDS011;72260;65.870;13.210;2024-01-10T13:50:05;6.43;;;1.73;;
82574;SDS011;72260;65.870;13.210;2024-01-10T13:52:32;5.97;;;1.27;;
82574;SDS011;72260;65.870;13.210;2024-01-10T13:54:58;6.20;;;1.15;;
82574;SDS011;72260;65.870;13.210;2024-01-10T13:57:24;9.65;;;1.70;;
82574;SDS011;72260;65.870;13.210;2024-01-10T13:59:49;3.15;;;0.95;;
82574;SDS011;72260;65.870;13.210;2024-01-10T14:02:16;5.00;;;1.40;;
82574;SDS011;72260;65.870;13.210;2024-01-10T14:04:45;7.43;;;1.40;;
82574;SDS011;72260;65.870;13.210;2024-01-10T14:07:11;7.07;;;1.40;;
82574;SDS011;72260;65.870;13.210;2024-01-10T14:09:38;1.55;;;0.80;;
82574;SDS011;72260;65.870;13.210;2024-01-10T14:12:03;5.43;;;1.20;;
82574;SDS011;72260;65.870;13.210;2024-01-10T14:14:29;4.22;;;1.48;;
82574;SDS011;72260;65.870;13.210;2024-01-10T14:16:57;3.72;;;1.15;;
82574;SDS011;72260;65.870;13.210;2024-01-10T14:19:28;2.97;;;1.20;;
82574;SDS011;72260;65.870;13.210;2024-01-10T14:21:54;4.03;;;0.85;;
82574;SDS011;72260;65.870;13.210;2024-01-10T14:24:19;1.70;;;0.52;;
82574;SDS011;72260;65.870;13.210;2024-01-10T14:26:45;2.17;;;0.70;;
82574;SDS011;72260;65.870;13.210;2024-01-10T14:29:10;4.00;;;1.02;;
82574;SDS011;72260;65.870;13.210;2024-01-10T14:31:36;5.63;;;1.10;;
82574;SDS011;72260;65.870;13.210;2024-01-10T14:34:02;2.97;;;0.85;;
82574;SDS011;72260;65.870;13.210;2024-01-10T14:36:27;5.70;;;1.00;;
82574;SDS011;72260;65.870;13.210;2024-01-10T14:38:54;2.20;;;0.80;;
82574;SDS011;72260;65.870;13.210;2024-01-10T14:41:20;2.60;;;1.27;;
82574;SDS011;72260;65.870;13.210;2024-01-10T14:43:46;5.43;;;1.25;;
82574;SDS011;72260;65.870;13.210;2024-01-10T14:46:12;8.60;;;1.73;;
82574;SDS011;72260;65.870;13.210;2024-01-10T14:48:42;7.13;;;1.33;;
82574;SDS011;72260;65.870;13.210;2024-01-10T14:51:07;2.72;;;1.13;;
82574;SDS011;72260;65.870;13.210;2024-01-10T14:53:33;4.30;;;1.00;;
82574;SDS011;72260;65.870;13.210;2024-01-10T14:56:22;4.18;;;0.95;;